Time;durP1;ratioP1;P1;durP2;ratioP2;P2;SDS_P1;SDS_P2;PMS_P1;PMS_P2;Temp;Humidity;BMP_temperature;BMP_pressure;BME280_temperature;BME280_humidity;BME280_pressure;Samples;Min_cycle;Max_cycle;Signal;HPM_P1;HPM_P2
2023/07/15 00:01:24;;;;;;;1.50;1.40;;;;;;;;;;6143105;23;20259;-94
2023/07/15 00:03:54;;;;;;;1.80;1.63;;;;;;;;;;6141882;23;20231;-94
2023/07/15 00:06:23;;;;;;;1.50;1.40;;;;;;;;;;6140882;23;20176;-94
2023/07/15 00:08:51;;;;;;;1.35;1.25;;;;;;;;;;6141168;23;20176;-93
2023/07/15 00:11:25;;;;;;;1.65;1.23;;;;;;;;;;6141525;23;20203;-94
2023/07/15 00:13:56;;;;;;;2.33;1.40;;;;;;;;;;6142427;23;20255;-93
2023/07/15 00:16:25;;;;;;;1.60;1.50;;;;;;;;;;6145447;23;20179;-94
2023/07/15 00:18:52;;;;;;;1.50;1.40;;;;;;;;;;6145688;23;20191;-94
2023/07/15 00:21:23;;;;;;;1.40;1.30;;;;;;;;;;6144831;23;20203;-94
2023/07/15 00:23:55;;;;;;;1.70;1.60;;;;;;;;;;6140079;23;20175;-94
2023/07/15 00:26:24;;;;;;;1.58;1.48;;;;;;;;;;6140740;23;20176;-94
2023/07/15 00:28:54;;;;;;;1.50;1.40;;;;;;;;;;6142215;23;20190;-94
2023/07/15 00:31:23;;;;;;;1.63;1.52;;;;;;;;;;6142976;23;20196;-93
2023/07/15 00:33:51;;;;;;;1.77;1.67;;;;;;;;;;6143380;23;20191;-93
2023/07/15 00:36:19;;;;;;;1.48;1.38;;;;;;;;;;6142869;23;20183;-94
2023/07/15 00:38:48;;;;;;;2.03;1.45;;;;;;;;;;6142381;23;20183;-95
2023/07/15 00:41:20;;;;;;;1.50;1.40;;;;;;;;;;6144719;23;20695;-94
2023/07/15 00:43:54;;;;;;;1.20;1.17;;;;;;;;;;6141674;23;20176;-94
2023/07/15 00:47:12;;;;;;;1.77;1.67;;;;;;;;;;6141243;23;20187;-94
2023/07/15 00:49:41;;;;;;;1.80;1.55;;;;;;;;;;6142435;23;20195;-94
2023/07/15 00:52:11;;;;;;;1.58;1.48;;;;;;;;;;6141911;23;20175;-94
2023/07/15 00:54:41;;;;;;;1.63;1.52;;;;;;;;;;6142114;23;20176;-94
2023/07/15 00:57:11;;;;;;;2.38;2.17;;;;;;;;;;6141226;23;20276;-95
2023/07/15 00:59:39;;;;;;;2.05;1.70;;;;;;;;;;6141102;23;20546;-94
2023/07/15 01:02:09;;;;;;;1.90;1.80;;;;;;;;;;6140373;23;20176;-94
2023/07/15 01:04:37;;;;;;;1.80;1.70;;;;;;;;;;6140335;23;20176;-93
2023/07/15 01:07:06;;;;;;;2.00;1.90;;;;;;;;;;6141055;23;20179;-94
2023/07/15 01:09:34;;;;;;;1.60;1.50;;;;;;;;;;6141600;23;20196;-94
2023/07/15 01:12:02;;;;;;;2.05;1.95;;;;;;;;;;6140573;23;20184;-94
2023/07/15 01:14:30;;;;;;;2.03;1.83;;;;;;;;;;6142973;23;20203;-94
2023/07/15 01:16:58;;;;;;;2.03;1.70;;;;;;;;;;6146568;23;20184;-94
2023/07/15 01:19:27;;;;;;;1.98;1.88;;;;;;;;;;6145730;23;20195;-94
2023/07/15 01:21:55;;;;;;;1.60;1.50;;;;;;;;;;6144179;23;20186;-94
2023/07/15 01:24:25;;;;;;;2.30;1.65;;;;;;;;;;6139432;23;20179;-94
2023/07/15 01:26:58;;;;;;;1.70;1.60;;;;;;;;;;6141501;23;20164;-94
2023/07/15 01:29:26;;;;;;;1.98;1.80;;;;;;;;;;6142936;23;20192;-94
2023/07/15 01:31:54;;;;;;;1.88;1.70;;;;;;;;;;6143548;23;20176;-94
2023/07/15 01:34:22;;;;;;;2.08;1.80;;;;;;;;;;6141994;23;20246;-94
2023/07/15 01:36:51;;;;;;;1.63;1.52;;;;;;;;;;6139604;23;20687;-93
2023/07/15 01:39:19;;;;;;;1.50;1.40;;;;;;;;;;6141331;23;20275;-94
2023/07/15 01:41:48;;;;;;;1.63;1.48;;;;;;;;;;6140553;23;20176;-94
2023/07/15 01:44:16;;;;;;;1.33;1.25;;;;;;;;;;6140109;23;20176;-94
2023/07/15 01:46:44;;;;;;;2.63;1.42;;;;;;;;;;6140637;23;20178;-93
2023/07/15 01:49:12;;;;;;;1.30;1.30;;;;;;;;;;6140870;23;20192;-94
2023/07/15 01:51:40;;;;;;;1.55;1.45;;;;;;;;;;6141118;23;20183;-94
2023/07/15 01:54:08;;;;;;;1.88;1.42;;;;;;;;;;6140721;23;20214;-94
2023/07/15 01:56:36;;;;;;;1.60;1.40;;;;;;;;;;6140457;23;20183;-93
2023/07/15 01:59:05;;;;;;;1.80;1.70;;;;;;;;;;6140614;23;20175;-95
2023/07/15 02:01:34;;;;;;;1.55;1.45;;;;;;;;;;6141681;23;20231;-94
2023/07/15 02:04:02;;;;;;;1.80;1.70;;;;;;;;;;6140019;23;20172;-94
2023/07/15 02:06:30;;;;;;;1.70;1.60;;;;;;;;;;6140284;23;20176;-94
2023/07/15 02:08:58;;;;;;;2.22;1.77;;;;;;;;;;6142362;23;20182;-94
2023/07/15 02:11:26;;;;;;;2.15;1.90;;;;;;;;;;6142068;23;20200;-93
2023/07/15 02:13:54;;;;;;;1.67;1.58;;;;;;;;;;6141712;23;20192;-93
2023/07/15 02:16:23;;;;;;;1.90;1.67;;;;;;;;;;6145319;23;20183;-93
2023/07/15 02:18:51;;;;;;;1.85;1.70;;;;;;;;;;6144381;23;20195;-94
2023/07/15 02:21:19;;;;;;;3.25;1.90;;;;;;;;;;6139886;23;20195;-94
2023/07/15 02:23:47;;;;;;;1.70;1.60;;;;;;;;;;6137900;23;20168;-94
2023/07/15 02:26:15;;;;;;;1.75;1.58;;;;;;;;;;6142809;23;20163;-94
2023/07/15 02:28:43;;;;;;;1.77;1.67;;;;;;;;;;6142765;23;20175;-95
2023/07/15 02:31:11;;;;;;;2.00;1.80;;;;;;;;;;6145681;23;20195;-94
2023/07/15 02:33:40;;;;;;;1.50;1.40;;;;;;;;;;6153340;23;20194;-95
2023/07/15 02:36:08;;;;;;;1.83;1.70;;;;;;;;;;6144423;23;20175;-94
2023/07/15 02:38:36;;;;;;;1.90;1.65;;;;;;;;;;6146292;23;20176;-94
2023/07/15 02:41:04;;;;;;;1.48;1.38;;;;;;;;;;6145928;23;20202;-95
2023/07/15 02:43:32;;;;;;;2.17;1.92;;;;;;;;;;6143546;23;20171;-94
2023/07/15 02:46:00;;;;;;;1.70;1.60;;;;;;;;;;6154579;23;20163;-94
2023/07/15 02:48:28;;;;;;;2.25;1.40;;;;;;;;;;6156373;23;20175;-95
2023/07/15 02:50:58;;;;;;;1.23;1.23;;;;;;;;;;6156231;23;20206;-94
2023/07/15 02:53:26;;;;;;;1.48;1.38;;;;;;;;;;6156317;23;20175;-94
2023/07/15 02:55:56;;;;;;;2.15;1.60;;;;;;;;;;6156434;23;20163;-95
2023/07/15 02:58:24;;;;;;;1.67;1.58;;;;;;;;;;6150405;23;20175;-94
2023/07/15 03:00:53;;;;;;;1.55;1.45;;;;;;;;;;6149204;23;20195;-94
2023/07/15 03:03:21;;;;;;;1.85;1.75;;;;;;;;;;6147523;23;20164;-94
2023/07/15 03:05:49;;;;;;;1.67;1.58;;;;;;;;;;6146519;23;20183;-94
2023/07/15 03:08:19;;;;;;;2.60;1.45;;;;;;;;;;6147561;23;20175;-94
2023/07/15 03:10:49;;;;;;;1.50;1.40;;;;;;;;;;6148320;23;20235;-94
2023/07/15 03:13:17;;;;;;;1.38;1.23;;;;;;;;;;6145884;23;20172;-94
2023/07/15 03:15:45;;;;;;;1.55;1.45;;;;;;;;;;6146621;23;20195;-94
2023/07/15 03:18:13;;;;;;;1.63;1.52;;;;;;;;;;6147154;23;20172;-94
2023/07/15 03:20:41;;;;;;;1.60;1.50;;;;;;;;;;6148668;23;20191;-94
2023/07/15 03:23:09;;;;;;;5.07;1.52;;;;;;;;;;6151279;23;20194;-94
2023/07/15 03:25:38;;;;;;;1.95;1.80;;;;;;;;;;6150295;23;20175;-94
2023/07/15 03:28:06;;;;;;;1.50;1.40;;;;;;;;;;6151639;23;20186;-95
2023/07/15 03:30:34;;;;;;;1.65;1.45;;;;;;;;;;6153629;23;20187;-94
2023/07/15 03:33:02;;;;;;;1.33;1.23;;;;;;;;;;6154310;23;20163;-94
2023/07/15 03:35:30;;;;;;;2.00;1.80;;;;;;;;;;6151018;23;20262;-94
2023/07/15 03:37:58;;;;;;;1.55;1.45;;;;;;;;;;6155544;23;20183;-94
2023/07/15 03:40:26;;;;;;;1.58;1.48;;;;;;;;;;6155644;23;20195;-94
2023/07/15 03:42:55;;;;;;;2.17;1.80;;;;;;;;;;6155844;23;20183;-94
2023/07/15 03:45:23;;;;;;;1.70;1.60;;;;;;;;;;6151967;23;20164;-94
2023/07/15 03:47:53;;;;;;;1.08;1.08;;;;;;;;;;6149583;23;20207;-94
2023/07/15 03:50:21;;;;;;;1.40;1.30;;;;;;;;;;6149151;23;20196;-94
2023/07/15 03:52:49;;;;;;;2.83;1.85;;;;;;;;;;6149794;23;20179;-96
2023/07/15 03:55:16;;;;;;;1.50;1.40;;;;;;;;;;6152430;23;20746;-94
2023/07/15 03:57:44;;;;;;;1.60;1.50;;;;;;;;;;6144710;23;20394;-94
2023/07/15 04:00:17;;;;;;;1.40;1.30;;;;;;;;;;6142706;23;20202;-94
2023/07/15 04:02:48;;;;;;;1.60;1.50;;;;;;;;;;6140887;23;20264;-94
2023/07/15 04:05:16;;;;;;;1.73;1.60;;;;;;;;;;6144268;23;20235;-95
2023/07/15 04:07:44;;;;;;;2.42;2.28;;;;;;;;;;6140442;23;20203;-94
2023/07/15 04:10:12;;;;;;;1.67;1.58;;;;;;;;;;6142373;23;20206;-95
2023/07/15 04:12:40;;;;;;;1.50;1.40;;;;;;;;;;6142189;23;20188;-94
2023/07/15 04:15:10;;;;;;;1.67;1.58;;;;;;;;;;6141125;23;20201;-94
2023/07/15 04:17:39;;;;;;;1.80;1.70;;;;;;;;;;6144321;23;20238;-94
2023/07/15 04:20:17;;;;;;;1.90;1.70;;;;;;;;;;6142014;23;20203;-94
2023/07/15 04:22:45;;;;;;;2.33;1.52;;;;;;;;;;6143864;23;20226;-94
2023/07/15 04:25:14;;;;;;;1.55;1.45;;;;;;;;;;6142455;23;20198;-94
2023/07/15 04:27:42;;;;;;;2.45;1.88;;;;;;;;;;6143797;23;20211;-94
2023/07/15 04:30:12;;;;;;;2.38;1.50;;;;;;;;;;6141272;23;20262;-95
2023/07/15 04:32:41;;;;;;;2.40;2.20;;;;;;;;;;6144744;23;20182;-95
2023/07/15 04:35:10;;;;;;;2.55;1.70;;;;;;;;;;6143589;23;20200;-95
2023/07/15 04:37:38;;;;;;;1.90;1.80;;;;;;;;;;6144749;23;20180;-95
2023/07/15 04:40:10;;;;;;;1.77;1.67;;;;;;;;;;6143891;23;20231;-94
2023/07/15 04:42:38;;;;;;;2.05;1.55;;;;;;;;;;6141103;23;20199;-94
2023/07/15 04:45:08;;;;;;;1.73;1.63;;;;;;;;;;6142302;23;20210;-94
2023/07/15 04:47:37;;;;;;;1.95;1.63;;;;;;;;;;6143231;23;20207;-94
2023/07/15 04:50:07;;;;;;;1.20;1.20;;;;;;;;;;6143067;23;20199;-95
2023/07/15 04:52:35;;;;;;;1.65;1.55;;;;;;;;;;6145964;23;20415;-94
2023/07/15 04:55:04;;;;;;;1.98;1.88;;;;;;;;;;6144247;23;20188;-95
2023/07/15 04:57:32;;;;;;;1.67;1.58;;;;;;;;;;6146027;23;20171;-94
2023/07/15 05:00:00;;;;;;;2.00;1.73;;;;;;;;;;6142262;23;20227;-95
2023/07/15 05:02:28;;;;;;;1.83;1.60;;;;;;;;;;6141400;23;20194;-94
2023/07/15 05:04:56;;;;;;;1.60;1.50;;;;;;;;;;6141438;23;20182;-95
2023/07/15 05:07:25;;;;;;;1.83;1.73;;;;;;;;;;6141539;23;20208;-94
2023/07/15 05:09:54;;;;;;;1.65;1.55;;;;;;;;;;6143332;23;20196;-94
2023/07/15 05:12:22;;;;;;;1.35;1.25;;;;;;;;;;6143375;23;20163;-94
2023/07/15 05:14:51;;;;;;;1.65;1.55;;;;;;;;;;6142063;23;20356;-95
2023/07/15 05:17:19;;;;;;;1.38;1.30;;;;;;;;;;6143492;23;20187;-94
2023/07/15 05:19:47;;;;;;;1.73;1.58;;;;;;;;;;6142540;23;20196;-95
2023/07/15 05:22:16;;;;;;;4.00;2.35;;;;;;;;;;6146352;23;20183;-94
2023/07/15 05:24:45;;;;;;;1.60;1.42;;;;;;;;;;6147569;23;20186;-95
2023/07/15 05:27:14;;;;;;;1.80;1.70;;;;;;;;;;6145514;23;20172;-95
2023/07/15 05:29:42;;;;;;;1.60;1.50;;;;;;;;;;6145213;23;20198;-95
2023/07/15 05:32:11;;;;;;;1.40;1.33;;;;;;;;;;6146322;23;20467;-94
2023/07/15 05:34:39;;;;;;;1.95;1.85;;;;;;;;;;6145382;23;20179;-95
2023/07/15 05:37:08;;;;;;;1.67;1.58;;;;;;;;;;6147133;23;20196;-95
2023/07/15 05:39:35;;;;;;;2.17;2.00;;;;;;;;;;6144840;23;20199;-95
2023/07/15 05:42:05;;;;;;;2.53;1.65;;;;;;;;;;6146580;23;20164;-95
2023/07/15 05:44:33;;;;;;;1.98;1.63;;;;;;;;;;6147848;23;20175;-95
2023/07/15 05:47:00;;;;;;;2.22;1.92;;;;;;;;;;6147426;23;20158;-95
2023/07/15 05:49:28;;;;;;;1.80;1.70;;;;;;;;;;6147714;23;20188;-95
2023/07/15 05:51:56;;;;;;;3.17;1.95;;;;;;;;;;6148265;23;20156;-96
2023/07/15 05:54:23;;;;;;;2.17;1.70;;;;;;;;;;6148265;23;20176;-94
2023/07/15 05:56:52;;;;;;;1.70;1.58;;;;;;;;;;6147939;23;20194;-95
2023/07/15 05:59:21;;;;;;;4.05;1.92;;;;;;;;;;6151395;23;20182;-96
2023/07/15 06:01:49;;;;;;;1.65;1.55;;;;;;;;;;6153213;23;20187;-95
2023/07/15 06:04:16;;;;;;;1.70;1.60;;;;;;;;;;6153141;23;20170;-95
2023/07/15 06:06:44;;;;;;;1.63;1.52;;;;;;;;;;6153192;23;20369;-95
2023/07/15 06:09:12;;;;;;;1.50;1.40;;;;;;;;;;6152912;23;20184;-95
2023/07/15 06:11:39;;;;;;;4.13;1.58;;;;;;;;;;6153273;23;20152;-95
2023/07/15 06:14:07;;;;;;;1.60;1.50;;;;;;;;;;6153153;23;20160;-94
2023/07/15 06:16:36;;;;;;;1.92;1.83;;;;;;;;;;6152294;23;20203;-96
2023/07/15 06:19:04;;;;;;;2.08;1.95;;;;;;;;;;6152845;23;20147;-96
2023/07/15 06:21:32;;;;;;;2.08;1.88;;;;;;;;;;6152372;23;20178;-95
2023/07/15 06:23:59;;;;;;;2.50;2.40;;;;;;;;;;6153323;23;20227;-95
2023/07/15 06:26:27;;;;;;;2.25;1.73;;;;;;;;;;6153285;23;20167;-95
2023/07/15 06:28:54;;;;;;;1.73;1.63;;;;;;;;;;6153153;23;20178;-95
2023/07/15 06:31:23;;;;;;;2.05;1.60;;;;;;;;;;6152697;23;20180;-95
2023/07/15 06:33:52;;;;;;;2.10;2.00;;;;;;;;;;6153361;23;20179;-94
2023/07/15 06:36:20;;;;;;;2.10;2.00;;;;;;;;;;6153109;23;20187;-95
2023/07/15 06:38:47;;;;;;;2.42;1.70;;;;;;;;;;6152987;23;20160;-95
2023/07/15 06:41:15;;;;;;;1.88;1.77;;;;;;;;;;6153064;23;20188;-95
2023/07/15 06:43:42;;;;;;;1.80;1.70;;;;;;;;;;6153242;23;20167;-95
2023/07/15 06:46:10;;;;;;;1.85;1.73;;;;;;;;;;6152990;23;20168;-94
2023/07/15 06:48:38;;;;;;;2.13;1.92;;;;;;;;;;6152729;23;20156;-95
2023/07/15 06:51:07;;;;;;;1.77;1.67;;;;;;;;;;6153065;23;20184;-94
2023/07/15 06:53:34;;;;;;;1.73;1.63;;;;;;;;;;6153003;23;20152;-95
2023/07/15 06:56:02;;;;;;;1.70;1.60;;;;;;;;;;6152955;23;20191;-95
2023/07/15 06:58:30;;;;;;;1.98;1.88;;;;;;;;;;6153269;23;20152;-95
2023/07/15 07:00:57;;;;;;;1.65;1.40;;;;;;;;;;6152642;23;20183;-96
2023/07/15 07:03:25;;;;;;;1.90;1.80;;;;;;;;;;6152995;23;20164;-95
2023/07/15 07:05:52;;;;;;;1.90;1.70;;;;;;;;;;6152986;23;20168;-95
2023/07/15 07:08:22;;;;;;;3.35;2.10;;;;;;;;;;6153264;23;20155;-95
2023/07/15 07:10:52;;;;;;;2.50;2.00;;;;;;;;;;6152518;23;20208;-96
2023/07/15 07:13:20;;;;;;;2.55;1.85;;;;;;;;;;6152985;23;20156;-95
2023/07/15 07:15:48;;;;;;;1.90;1.75;;;;;;;;;;6152925;23;20168;-95
2023/07/15 07:18:15;;;;;;;1.70;1.60;;;;;;;;;;6153059;23;20163;-95
2023/07/15 07:20:43;;;;;;;1.92;1.75;;;;;;;;;;6152441;23;20192;-95
2023/07/15 07:23:11;;;;;;;2.50;1.70;;;;;;;;;;6152936;23;20155;-95
2023/07/15 07:25:42;;;;;;;1.73;1.63;;;;;;;;;;6152970;23;20157;-96
2023/07/15 07:28:10;;;;;;;1.90;1.80;;;;;;;;;;6153063;23;20148;-96
2023/07/15 07:30:38;;;;;;;2.03;1.77;;;;;;;;;;6152198;23;20172;-96
2023/07/15 07:33:05;;;;;;;1.70;1.60;;;;;;;;;;6154571;23;20148;-95
2023/07/15 07:35:33;;;;;;;1.80;1.70;;;;;;;;;;6154935;23;20148;-95
2023/07/15 07:38:01;;;;;;;1.90;1.80;;;;;;;;;;6154724;23;20190;-96
2023/07/15 07:40:29;;;;;;;2.13;1.92;;;;;;;;;;6154481;23;20163;-96
2023/07/15 07:42:58;;;;;;;2.80;1.85;;;;;;;;;;6154695;23;20172;-96
2023/07/15 07:45:25;;;;;;;2.03;1.92;;;;;;;;;;6154681;23;20191;-96
2023/07/15 07:47:53;;;;;;;1.92;1.83;;;;;;;;;;6154900;23;20160;-96
2023/07/15 07:50:21;;;;;;;2.30;2.08;;;;;;;;;;6154096;23;20196;-95
2023/07/15 07:52:49;;;;;;;2.53;1.38;;;;;;;;;;6154631;23;20168;-96
2023/07/15 07:55:16;;;;;;;1.52;1.42;;;;;;;;;;6154641;23;20156;-96
2023/07/15 07:57:44;;;;;;;1.90;1.50;;;;;;;;;;6154603;23;20203;-95
2023/07/15 08:00:15;;;;;;;1.80;1.70;;;;;;;;;;6154279;23;20168;-95
2023/07/15 08:02:42;;;;;;;1.75;1.65;;;;;;;;;;6154545;23;20180;-95
2023/07/15 08:05:10;;;;;;;2.03;1.92;;;;;;;;;;6154808;23;20148;-96
2023/07/15 08:07:38;;;;;;;3.80;1.70;;;;;;;;;;6154492;23;20159;-96
2023/07/15 08:10:08;;;;;;;1.95;1.65;;;;;;;;;;6154283;23;20186;-96
2023/07/15 08:12:35;;;;;;;2.10;1.60;;;;;;;;;;6154704;23;20160;-96
2023/07/15 08:15:03;;;;;;;2.33;1.98;;;;;;;;;;6154333;23;20205;-96
2023/07/15 08:17:32;;;;;;;2.10;1.90;;;;;;;;;;6154148;23;20196;-96
2023/07/15 08:20:00;;;;;;;2.30;2.10;;;;;;;;;;6153849;23;20187;-95
2023/07/15 08:22:28;;;;;;;1.67;1.52;;;;;;;;;;6154502;23;20152;-96
2023/07/15 08:24:56;;;;;;;2.42;2.08;;;;;;;;;;6154327;23;20160;-96
2023/07/15 08:27:24;;;;;;;1.65;1.60;;;;;;;;;;6154377;23;20148;-96
2023/07/15 08:29:51;;;;;;;1.50;1.50;;;;;;;;;;6153956;23;20174;-96
2023/07/15 08:32:19;;;;;;;1.30;1.25;;;;;;;;;;6154078;23;20172;-95
2023/07/15 08:35:00;;;;;;;1.63;1.52;;;;;;;;;;6154417;23;20152;-96
2023/07/15 08:37:28;;;;;;;2.17;1.52;;;;;;;;;;6154490;23;20178;-96
2023/07/15 08:39:56;;;;;;;2.40;1.95;;;;;;;;;;6153837;23;20210;-95
2023/07/15 08:42:24;;;;;;;1.65;1.55;;;;;;;;;;6154292;23;20148;-96
2023/07/15 08:44:53;;;;;;;1.70;1.60;;;;;;;;;;6153955;23;20230;-96
2023/07/15 08:47:23;;;;;;;2.30;2.10;;;;;;;;;;6154193;23;20156;-96
2023/07/15 08:49:52;;;;;;;1.75;1.65;;;;;;;;;;6153805;23;20168;-95
2023/07/15 08:52:23;;;;;;;2.08;1.75;;;;;;;;;;6154175;23;20155;-95
2023/07/15 08:54:53;;;;;;;1.50;1.40;;;;;;;;;;6154311;23;20168;-95
2023/07/15 08:57:23;;;;;;;1.70;1.60;;;;;;;;;;6153892;23;20175;-96
2023/07/15 08:59:52;;;;;;;1.73;1.63;;;;;;;;;;6153728;23;20247;-96
2023/07/15 09:02:20;;;;;;;1.50;1.40;;;;;;;;;;6154351;23;20174;-96
2023/07/15 09:04:48;;;;;;;1.75;1.65;;;;;;;;;;6154097;23;20159;-96
2023/07/15 09:07:15;;;;;;;1.40;1.30;;;;;;;;;;6153812;23;20187;-96
2023/07/15 09:09:45;;;;;;;1.55;1.48;;;;;;;;;;6153720;23;20228;-96
2023/07/15 09:12:13;;;;;;;1.60;1.50;;;;;;;;;;6153970;23;20168;-96
2023/07/15 09:14:44;;;;;;;1.40;1.30;;;;;;;;;;6153854;23;20148;-94
2023/07/15 09:17:17;;;;;;;1.65;1.55;;;;;;;;;;6153542;23;20215;-95
2023/07/15 09:19:46;;;;;;;2.20;2.03;;;;;;;;;;6153588;23;20183;-95
2023/07/15 09:22:13;;;;;;;1.55;1.45;;;;;;;;;;6153928;23;20195;-96
2023/07/15 09:24:42;;;;;;;1.60;1.50;;;;;;;;;;6153937;23;20245;-95
2023/07/15 09:27:11;;;;;;;1.63;1.52;;;;;;;;;;6153963;23;20220;-96
2023/07/15 09:29:39;;;;;;;3.55;1.88;;;;;;;;;;6153281;23;20172;-95
2023/07/15 09:32:08;;;;;;;2.67;1.60;;;;;;;;;;6153158;23;20183;-96
2023/07/15 09:34:41;;;;;;;3.35;1.90;;;;;;;;;;6154024;23;20148;-95
2023/07/15 09:37:08;;;;;;;4.65;2.10;;;;;;;;;;6153752;23;20178;-95
2023/07/15 09:39:36;;;;;;;2.25;2.05;;;;;;;;;;6153308;23;20191;-96
2023/07/15 09:42:07;;;;;;;1.85;1.75;;;;;;;;;;6153566;23;20152;-94
2023/07/15 09:44:38;;;;;;;2.50;2.20;;;;;;;;;;6153746;23;20148;-96
2023/07/15 09:47:06;;;;;;;2.00;1.75;;;;;;;;;;6153510;23;20159;-95
2023/07/15 09:49:34;;;;;;;1.48;1.38;;;;;;;;;;6153127;23;20172;-95
2023/07/15 09:52:04;;;;;;;1.63;1.52;;;;;;;;;;6153718;23;20156;-95
2023/07/15 09:54:34;;;;;;;1.85;1.60;;;;;;;;;;6153451;23;20183;-95
2023/07/15 09:57:04;;;;;;;1.95;1.60;;;;;;;;;;6153172;23;20163;-95
2023/07/15 09:59:43;;;;;;;2.08;1.90;;;;;;;;;;6153049;23;20285;-95
2023/07/15 10:02:29;;;;;;;1.60;1.50;;;;;;;;;;6153593;23;20167;-95
2023/07/15 10:05:00;;;;;;;5.70;1.92;;;;;;;;;;6153462;23;20163;-95
2023/07/15 10:07:28;;;;;;;1.40;1.30;;;;;;;;;;6153409;23;20171;-95
2023/07/15 10:09:55;;;;;;;2.10;1.77;;;;;;;;;;6153172;23;20179;-95
2023/07/15 10:12:23;;;;;;;1.80;1.70;;;;;;;;;;6153452;23;20168;-96
2023/07/15 10:14:52;;;;;;;1.92;1.60;;;;;;;;;;6153388;23;20160;-95
2023/07/15 10:17:20;;;;;;;1.60;1.50;;;;;;;;;;6153047;23;20164;-94
2023/07/15 10:19:50;;;;;;;1.65;1.55;;;;;;;;;;6152852;23;20196;-95
2023/07/15 10:22:19;;;;;;;1.48;1.38;;;;;;;;;;6153289;23;20163;-95
2023/07/15 10:24:54;;;;;;;1.73;1.63;;;;;;;;;;6153305;23;20179;-95
2023/07/15 10:27:22;;;;;;;1.42;1.33;;;;;;;;;;6153439;23;20156;-95
2023/07/15 10:30:20;;;;;;;1.35;1.30;;;;;;;;;;6152789;23;20187;-95
2023/07/15 10:33:13;;;;;;;1.80;1.70;;;;;;;;;;6153327;23;20163;-94
2023/07/15 10:35:52;;;;;;;1.45;1.38;;;;;;;;;;6153336;23;20171;-95
2023/07/15 10:38:24;;;;;;;1.40;1.30;;;;;;;;;;6153192;23;20172;-94
2023/07/15 10:40:55;;;;;;;1.95;1.85;;;;;;;;;;6152976;23;20199;-95
2023/07/15 10:43:24;;;;;;;1.60;1.50;;;;;;;;;;6153203;23;20159;-94
2023/07/15 10:45:54;;;;;;;1.80;1.70;;;;;;;;;;6153160;23;20170;-94
2023/07/15 10:48:22;;;;;;;1.70;1.60;;;;;;;;;;6153178;23;20156;-95
2023/07/15 10:50:52;;;;;;;1.70;1.60;;;;;;;;;;6152684;23;20187;-94
2023/07/15 10:53:22;;;;;;;1.73;1.63;;;;;;;;;;6153131;23;20207;-94
2023/07/15 10:55:58;;;;;;;1.90;1.60;;;;;;;;;;6153179;23;20163;-95
2023/07/15 10:58:26;;;;;;;2.40;1.48;;;;;;;;;;6152915;23;20190;-95
2023/07/15 11:01:01;;;;;;;2.08;1.80;;;;;;;;;;6152753;23;20203;-95
2023/07/15 11:03:29;;;;;;;1.60;1.38;;;;;;;;;;6153160;23;20227;-96
2023/07/15 11:05:59;;;;;;;1.45;1.35;;;;;;;;;;6153382;23;20159;-95
2023/07/15 11:08:27;;;;;;;1.52;1.40;;;;;;;;;;6154847;23;20183;-94
2023/07/15 11:10:59;;;;;;;1.52;1.42;;;;;;;;;;6154767;23;20164;-94
2023/07/15 11:13:27;;;;;;;1.42;1.33;;;;;;;;;;6155216;23;20160;-94
2023/07/15 11:15:55;;;;;;;1.05;1.02;;;;;;;;;;6154198;23;20170;-95
2023/07/15 11:18:27;;;;;;;1.48;1.38;;;;;;;;;;6154968;23;20171;-95
2023/07/15 11:20:56;;;;;;;2.35;1.50;;;;;;;;;;6154260;23;20179;-96
2023/07/15 11:23:24;;;;;;;1.92;1.83;;;;;;;;;;6154901;23;20148;-95
2023/07/15 11:25:52;;;;;;;1.55;1.33;;;;;;;;;;6154944;23;20172;-96
2023/07/15 11:28:20;;;;;;;1.52;1.42;;;;;;;;;;6154806;23;20167;-95
2023/07/15 11:30:49;;;;;;;2.08;1.98;;;;;;;;;;6154289;23;20168;-95
2023/07/15 11:33:17;;;;;;;2.08;1.92;;;;;;;;;;6154878;23;20152;-95
2023/07/15 11:35:47;;;;;;;1.65;1.55;;;;;;;;;;6154793;23;20172;-95
2023/07/15 11:38:16;;;;;;;1.50;1.40;;;;;;;;;;6154904;23;20152;-95
2023/07/15 11:40:53;;;;;;;1.65;1.55;;;;;;;;;;6154500;23;20187;-95
2023/07/15 11:43:23;;;;;;;2.15;2.05;;;;;;;;;;6154839;23;20147;-95
2023/07/15 11:45:50;;;;;;;2.90;2.47;;;;;;;;;;6154693;23;20152;-96
2023/07/15 11:48:22;;;;;;;2.03;1.92;;;;;;;;;;6154817;23;20156;-95
2023/07/15 11:50:51;;;;;;;1.88;1.77;;;;;;;;;;6154535;23;20172;-95
2023/07/15 11:53:30;;;;;;;2.05;1.85;;;;;;;;;;6154665;23;20167;-95
2023/07/15 11:55:58;;;;;;;1.30;1.20;;;;;;;;;;6154628;23;20163;-96
2023/07/15 11:58:50;;;;;;;2.13;1.88;;;;;;;;;;6154533;23;20156;-96
2023/07/15 12:01:19;;;;;;;1.55;1.45;;;;;;;;;;6154602;23;20176;-95
2023/07/15 12:03:48;;;;;;;1.90;1.80;;;;;;;;;;6154709;23;20148;-96
2023/07/15 12:06:19;;;;;;;1.83;1.60;;;;;;;;;;6154773;23;20161;-95
2023/07/15 12:09:01;;;;;;;1.45;1.40;;;;;;;;;;6154387;23;20155;-95
2023/07/15 12:11:30;;;;;;;1.67;1.58;;;;;;;;;;6154471;23;20160;-96
2023/07/15 12:13:58;;;;;;;1.63;1.52;;;;;;;;;;6154608;23;20156;-96
2023/07/15 12:16:26;;;;;;;1.73;1.63;;;;;;;;;;6154291;23;20167;-95
2023/07/15 12:18:54;;;;;;;1.92;1.83;;;;;;;;;;6153619;23;20160;-95
2023/07/15 12:21:23;;;;;;;1.70;1.60;;;;;;;;;;6154282;23;20225;-95
2023/07/15 12:23:51;;;;;;;1.75;1.65;;;;;;;;;;6154624;23;20159;-93
2023/07/15 12:26:19;;;;;;;1.50;1.40;;;;;;;;;;6154454;23;20183;-93
2023/07/15 12:28:47;;;;;;;2.67;1.75;;;;;;;;;;6154228;23;20152;-94
2023/07/15 12:31:15;;;;;;;1.90;1.80;;;;;;;;;;6153968;23;20187;-93
2023/07/15 12:33:44;;;;;;;3.75;1.70;;;;;;;;;;6154333;23;20152;-93
2023/07/15 12:36:17;;;;;;;1.58;1.58;;;;;;;;;;6154320;23;20148;-94
2023/07/15 12:38:47;;;;;;;2.47;2.15;;;;;;;;;;6154216;23;20159;-96
2023/07/15 12:41:15;;;;;;;1.88;1.77;;;;;;;;;;6154455;23;20164;-95
2023/07/15 12:43:43;;;;;;;2.13;2.00;;;;;;;;;;6154235;23;20152;-94
2023/07/15 12:46:11;;;;;;;2.00;1.90;;;;;;;;;;6154104;23;20188;-95
2023/07/15 12:48:39;;;;;;;1.95;1.85;;;;;;;;;;6154178;23;20160;-94
2023/07/15 12:51:06;;;;;;;2.25;2.15;;;;;;;;;;6154072;23;20175;-94
2023/07/15 12:53:34;;;;;;;2.95;2.70;;;;;;;;;;6154212;23;20183;-94
2023/07/15 12:56:03;;;;;;;2.10;2.00;;;;;;;;;;6154351;23;20148;-94
2023/07/15 12:58:31;;;;;;;3.00;2.70;;;;;;;;;;6154216;23;20170;-95
2023/07/15 13:01:00;;;;;;;2.65;2.45;;;;;;;;;;6153830;23;20188;-95
2023/07/15 13:03:27;;;;;;;2.20;2.08;;;;;;;;;;6154280;23;20155;-95
2023/07/15 13:05:56;;;;;;;3.10;2.90;;;;;;;;;;6154164;23;20172;-95
2023/07/15 13:08:24;;;;;;;4.10;2.70;;;;;;;;;;6153985;23;20154;-94
2023/07/15 13:10:54;;;;;;;3.03;2.72;;;;;;;;;;6153834;23;20183;-94
2023/07/15 13:13:23;;;;;;;2.90;2.70;;;;;;;;;;6154442;23;20167;-96
2023/07/15 13:15:51;;;;;;;2.83;2.63;;;;;;;;;;6153829;23;20206;-94
2023/07/15 13:18:19;;;;;;;3.13;2.90;;;;;;;;;;6153790;23;20155;-95
2023/07/15 13:20:47;;;;;;;4.45;3.03;;;;;;;;;;6153580;23;20196;-94
2023/07/15 13:23:15;;;;;;;2.67;2.50;;;;;;;;;;6153876;23;20191;-95
2023/07/15 13:25:43;;;;;;;2.88;2.67;;;;;;;;;;6153846;23;20187;-94
2023/07/15 13:28:11;;;;;;;2.92;2.65;;;;;;;;;;6153908;23;20185;-95
2023/07/15 13:30:40;;;;;;;3.08;2.78;;;;;;;;;;6153040;23;20203;-94
2023/07/15 13:33:08;;;;;;;3.92;2.60;;;;;;;;;;6153931;23;20159;-94
2023/07/15 13:35:35;;;;;;;3.17;2.95;;;;;;;;;;6153909;23;20160;-94
2023/07/15 13:38:03;;;;;;;3.05;2.85;;;;;;;;;;6153851;23;20152;-94
2023/07/15 13:40:31;;;;;;;3.72;3.20;;;;;;;;;;6153431;23;20207;-95
2023/07/15 13:42:59;;;;;;;2.90;2.70;;;;;;;;;;6153584;23;20199;-95
2023/07/15 13:45:26;;;;;;;2.35;2.20;;;;;;;;;;6153819;23;20148;-96
2023/07/15 13:47:56;;;;;;;4.15;3.03;;;;;;;;;;6153641;23;20164;-95
2023/07/15 13:50:24;;;;;;;2.70;2.50;;;;;;;;;;6153607;23;20184;-94
2023/07/15 13:52:52;;;;;;;3.15;2.90;;;;;;;;;;6153668;23;20171;-95
2023/07/15 13:55:19;;;;;;;2.40;2.20;;;;;;;;;;6153862;23;20155;-95
2023/07/15 13:57:47;;;;;;;5.18;2.40;;;;;;;;;;6153813;23;20192;-95
2023/07/15 14:00:15;;;;;;;3.50;3.22;;;;;;;;;;6154764;23;20199;-85
2023/07/15 14:02:43;;;;;;;2.75;2.55;;;;;;;;;;6164564;23;20210;-85
2023/07/15 14:05:12;;;;;;;2.45;2.25;;;;;;;;;;6159304;23;20171;-85
2023/07/15 14:07:39;;;;;;;2.55;2.35;;;;;;;;;;6133510;23;20172;-86
2023/07/15 14:10:08;;;;;;;2.92;2.72;;;;;;;;;;6132671;23;20172;-85
2023/07/15 14:12:36;;;;;;;3.00;2.80;;;;;;;;;;6132584;23;20218;-86
2023/07/15 14:15:04;;;;;;;2.85;2.65;;;;;;;;;;6133361;23;20179;-85
2023/07/15 14:17:32;;;;;;;2.80;2.60;;;;;;;;;;6133057;23;20211;-86
2023/07/15 14:19:59;;;;;;;2.60;2.40;;;;;;;;;;6130585;23;20207;-86
2023/07/15 14:22:28;;;;;;;3.42;2.60;;;;;;;;;;6131464;23;20218;-86
2023/07/15 14:24:56;;;;;;;2.90;2.70;;;;;;;;;;6130961;23;20175;-86
2023/07/15 14:27:23;;;;;;;2.78;2.20;;;;;;;;;;6130976;23;20203;-86
2023/07/15 14:29:51;;;;;;;2.50;2.30;;;;;;;;;;6133408;23;20199;-86
2023/07/15 14:32:18;;;;;;;2.53;2.33;;;;;;;;;;6132333;23;20179;-86
2023/07/15 14:34:46;;;;;;;2.47;2.25;;;;;;;;;;6133121;23;20207;-86
2023/07/15 14:37:15;;;;;;;3.90;2.35;;;;;;;;;;6131553;23;20199;-85
2023/07/15 14:39:43;;;;;;;2.50;2.20;;;;;;;;;;6131146;23;20650;-86
2023/07/15 14:42:11;;;;;;;3.13;2.80;;;;;;;;;;6129404;23;20279;-87
2023/07/15 14:44:38;;;;;;;3.58;2.97;;;;;;;;;;6128943;23;20188;-86
2023/07/15 14:47:06;;;;;;;2.13;2.03;;;;;;;;;;6130031;23;20223;-86
2023/07/15 14:49:34;;;;;;;4.03;2.67;;;;;;;;;;6129917;23;20234;-86
2023/07/15 14:52:01;;;;;;;2.38;2.28;;;;;;;;;;6130721;23;20560;-86
2023/07/15 14:54:29;;;;;;;3.10;2.70;;;;;;;;;;6129940;23;20175;-86